nws-alerts: Checking more than four warning/county codes can delay the loading of your pages. You should use a cron job to get the data.

Nearby METAR Reports

 

KLBE - Latrobe/Westmorl, Pennsylvania, USA
Distance from station: SE 16mi, 26km
Updated: Wed, 14-Nov-2018 8:50pm EST
Clear
Clear
 Wind from calm
Wind: Calm
Temperature: 30°F , -1°C
Dew Point: 19°F , -7°C
Humidity: 64%
Barometer: 30.49 inHg , 1032.5 hPa
Clouds: Clear
Visibility: 10 miles , 16 km
2018/11/15 01:50 KLBE 150150Z 00000KT 10SM SKC M01/M07 A3049
KAGC - Pittsburgh/Alleg, Pennsylvania, USA
Distance from station: WSW 18mi, 30km
Updated: Wed, 14-Nov-2018 8:53pm EST
Clear
Clear
 Wind from ENE
Wind: ENE 3 mph , 6 km/h
Temperature: 28°F , -2°C
Dew Point: 19°F , -7°C
Humidity: 69%
Barometer: 30.45 inHg , 1031.2 hPa
Clouds: Clear
Visibility: 10 miles , 16 km
2018/11/15 01:53 KAGC 150153Z 06003KT 10SM CLR M02/M07 A3045 RMK AO2 SLP334 T10171072
 
KBTP - Butler Co., Pennsylvania, USA
Distance from station: NW 29mi, 47km
Updated: Wed, 14-Nov-2018 8:56pm EST
Clear
Clear
 Wind from ENE
Wind: ENE 3 mph , 6 km/h
Temperature: 27°F , -3°C
Dew Point: 19°F , -7°C
Humidity: 74%
Barometer: 30.47 inHg , 1031.8 hPa
Clouds: Clear
Visibility: 10 miles , 16 km
2018/11/15 01:56 KBTP 150156Z AUTO 07003KT 10SM CLR M03/M07 A3047 RMK AO2 SLP341 T10281067 FZRANO
KIDI - Indiana/Stewart, Pennsylvania, USA
Distance from station: ENE 29mi, 47km
Updated: Wed, 14-Nov-2018 9:15pm EST
Clear
Clear
 Wind from calm
Wind: Calm
Temperature: 28°F , -2°C
Dew Point: 23°F , -5°C
Humidity: 80%
Barometer: 30.49 inHg , 1032.5 hPa
Clouds: Clear
Visibility: 10 miles , 16 km
2018/11/15 02:15 KIDI 150215Z AUTO 00000KT 10SM CLR M02/M05 A3049 RMK A01
 
KPIT - Pittsburgh, Pennsylvania, USA
Distance from station: W 36mi, 57km
Updated: Wed, 14-Nov-2018 8:51pm EST
Overcast
Overcast
 Wind from ENE
Wind: ENE 5 mph , 7 km/h
Temperature: 28°F , -2°C
Wind Chill: 22°F , -6°C
Dew Point: 18°F , -8°C
Humidity: 64%
Barometer: 30.46 inHg , 1031.5 hPa
Clouds: Overcast
Visibility: 10 miles , 16 km
Cloud details: Overcast 22000 ft
2018/11/15 01:51 KPIT 150151Z 07004KT 10SM OVC220 M02/M08 A3046 RMK AO2 SLP337 T10221078
KJST - Johnstown, Pennsylvania, USA
Distance from station: ESE 41mi, 66km
Updated: Wed, 14-Nov-2018 8:54pm EST
Clear
Clear
 Wind from E
Wind: E 3 mph , 6 km/h
Temperature: 27°F , -3°C
Dew Point: 18°F , -8°C
Humidity: 69%
Barometer: 30.41 inHg , 1029.8 hPa
Clouds: Clear
Visibility: 10 miles , 16 km
2018/11/15 01:54 KJST 150154Z AUTO 10003KT 10SM CLR M03/M08 A3041 RMK AO2 SLP330 T10331078
 
KAFJ - Washington, Pennsylvania, USA
Distance from station: WSW 42mi, 68km
Updated: Wed, 14-Nov-2018 8:56pm EST
Clear
Clear
 Wind from NE
Wind: NE 7 mph , 11 km/h
Temperature: 28°F , -2°C
Wind Chill: 21°F , -6°C
Dew Point: 21°F , -6°C
Humidity: 74%
Barometer: 30.47 inHg , 1031.8 hPa
Clouds: Clear
Visibility: 10 miles , 16 km
2018/11/15 01:56 KAFJ 150156Z AUTO 05006KT 10SM CLR M02/M06 A3047 RMK AO2 SLP333 T10171061 FZRANO
KBVI - Beaver Falls Arp, Pennsylvania, USA
Distance from station: WNW 48mi, 77km
Updated: Wed, 14-Nov-2018 6:47pm EST
NOT Current
Clear
Clear
 Wind from calm
Wind: Calm
Temperature: 28°F , -2°C
Dew Point: 18°F , -8°C
Humidity: 64%
Barometer: 30.47 inHg , 1031.8 hPa
Clouds: Clear
Visibility: 10 miles , 16 km
2018/11/14 23:47 KBVI 142347Z 00000KT 10SM CLR M02/M08 A3047 RMK LAST